EXS3JA EGBB-GCLP
Flight info
| Callsign | EXS3JA |
|---|---|
| Flight time | 3h 56m |
| Altitude | 34000 |
| Route | ADMEX Y321 PEPIS Q41 SAM M195 LORKU DCT EBOMO DCT KORUL DCT AGADO DCT BEXAL DCT SAMAR |
| Aircraft | A21N/M-SDE3FGHIRWY/LB1 |
Departure
| Time | 2026-05-07 12:29 |
|---|---|
| Airport | Birmingham Airport (EGBB) |
Arrival
| Time | 2026-05-07 16:26 |
|---|---|
| Airport | Gran Canaria Airport (GCLP) |
| Time | Latitude | Longitude | Altitude | Speed | Heading |
|---|---|---|---|---|---|
| 2026-05-07 10:31 | 52.45036 | -1.73610 | 326 ft | 0 kts | 89° |
| 2026-05-07 12:16 | 52.45036 | -1.73616 | 329 ft | 3 kts | 89° |
| 2026-05-07 12:17 | 52.45035 | -1.73655 | 329 ft | 4 kts | 87° |
| 2026-05-07 12:17 | 52.45030 | -1.73694 | 329 ft | 4 kts | 50° |
| 2026-05-07 12:17 | 52.45011 | -1.73709 | 327 ft | 4 kts | 347° |
| 2026-05-07 12:17 | 52.44987 | -1.73692 | 328 ft | 4 kts | 327° |
| 2026-05-07 12:18 | 52.44973 | -1.73676 | 326 ft | 0 kts | 326° |
| 2026-05-07 12:22 | 52.44974 | -1.73677 | 329 ft | 1 kts | 326° |
| 2026-05-07 12:22 | 52.44989 | -1.73694 | 329 ft | 4 kts | 326° |
| 2026-05-07 12:22 | 52.45022 | -1.73730 | 325 ft | 7 kts | 327° |
| 2026-05-07 12:23 | 52.45080 | -1.73763 | 329 ft | 10 kts | 345° |
| 2026-05-07 12:23 | 52.45150 | -1.73830 | 327 ft | 12 kts | 325° |
| 2026-05-07 12:23 | 52.45224 | -1.73912 | 328 ft | 13 kts | 326° |
| 2026-05-07 12:23 | 52.45301 | -1.74008 | 329 ft | 14 kts | 305° |
| 2026-05-07 12:24 | 52.45348 | -1.74158 | 327 ft | 15 kts | 296° |
| 2026-05-07 12:24 | 52.45397 | -1.74318 | 326 ft | 16 kts | 296° |
| 2026-05-07 12:24 | 52.45448 | -1.74486 | 326 ft | 17 kts | 296° |
| 2026-05-07 12:24 | 52.45515 | -1.74617 | 325 ft | 15 kts | 325° |
| 2026-05-07 12:25 | 52.45597 | -1.74709 | 325 ft | 16 kts | 326° |
| 2026-05-07 12:25 | 52.45692 | -1.74814 | 318 ft | 16 kts | 326° |
| 2026-05-07 12:25 | 52.45788 | -1.74921 | 313 ft | 17 kts | 326° |
| 2026-05-07 12:25 | 52.45886 | -1.75032 | 311 ft | 17 kts | 325° |
| 2026-05-07 12:26 | 52.45988 | -1.75144 | 310 ft | 18 kts | 328° |
| 2026-05-07 12:26 | 52.46093 | -1.75259 | 309 ft | 19 kts | 324° |
| 2026-05-07 12:26 | 52.46202 | -1.75378 | 308 ft | 19 kts | 325° |
| 2026-05-07 12:26 | 52.46312 | -1.75503 | 308 ft | 20 kts | 325° |
| 2026-05-07 12:27 | 52.46425 | -1.75629 | 307 ft | 20 kts | 326° |
| 2026-05-07 12:27 | 52.46542 | -1.75758 | 311 ft | 21 kts | 326° |
| 2026-05-07 12:27 | 52.46619 | -1.75847 | 311 ft | 12 kts | 317° |
| 2026-05-07 12:27 | 52.46612 | -1.75977 | 312 ft | 13 kts | 237° |
| 2026-05-07 12:28 | 52.46564 | -1.76084 | 312 ft | 7 kts | 213° |
| 2026-05-07 12:28 | 52.46513 | -1.76053 | 313 ft | 9 kts | 147° |
| 2026-05-07 12:28 | 52.46440 | -1.75975 | 313 ft | 27 kts | 146° |
| 2026-05-07 12:28 | 52.46085 | -1.75579 | 314 ft | 95 kts | 145° |
| 2026-05-07 12:29 | 52.45382 | -1.74798 | 330 ft | 147 kts | 146° |
| 2026-05-07 12:29 | 52.44444 | -1.73752 | 546 ft | 166 kts | 146° |
| 2026-05-07 12:29 | 52.43504 | -1.72705 | 1142 ft | 165 kts | 146° |
| 2026-05-07 12:29 | 52.42528 | -1.71641 | 1625 ft | 175 kts | 147° |
| 2026-05-07 12:30 | 52.42188 | -1.71270 | 1766 ft | 180 kts | 147° |
| 2026-05-07 12:30 | 52.41111 | -1.70213 | 2163 ft | 196 kts | 157° |
| 2026-05-07 12:30 | 52.39757 | -1.69571 | 2683 ft | 209 kts | 167° |
| 2026-05-07 12:30 | 52.38271 | -1.68950 | 3067 ft | 232 kts | 161° |
| 2026-05-07 12:31 | 52.36754 | -1.67854 | 3638 ft | 244 kts | 154° |
| 2026-05-07 12:31 | 52.35216 | -1.66620 | 4417 ft | 247 kts | 155° |
| 2026-05-07 12:31 | 52.33597 | -1.65497 | 5024 ft | 259 kts | 158° |
| 2026-05-07 12:31 | 52.31899 | -1.64378 | 5667 ft | 267 kts | 158° |
| 2026-05-07 12:32 | 52.30164 | -1.63238 | 6403 ft | 270 kts | 158° |
| 2026-05-07 12:32 | 52.28415 | -1.62084 | 7146 ft | 273 kts | 158° |
| 2026-05-07 12:32 | 52.26646 | -1.60917 | 7912 ft | 275 kts | 158° |
| 2026-05-07 12:32 | 52.24856 | -1.59756 | 8642 ft | 279 kts | 160° |
| 2026-05-07 12:33 | 52.21090 | -1.57787 | 10100 ft | 286 kts | 163° |
| 2026-05-07 12:33 | 52.19183 | -1.56833 | 10837 ft | 288 kts | 163° |
| 2026-05-07 12:33 | 52.17249 | -1.55862 | 11437 ft | 297 kts | 163° |
| 2026-05-07 12:34 | 52.15913 | -1.55193 | 11651 ft | 309 kts | 163° |
| 2026-05-07 12:34 | 52.13799 | -1.54127 | 11928 ft | 328 kts | 163° |
| 2026-05-07 12:34 | 52.11563 | -1.52998 | 12196 ft | 346 kts | 163° |
| 2026-05-07 12:34 | 52.09201 | -1.51808 | 12434 ft | 363 kts | 163° |
| 2026-05-07 12:35 | 52.06731 | -1.50565 | 12664 ft | 379 kts | 163° |
| 2026-05-07 12:35 | 52.04182 | -1.49285 | 13076 ft | 387 kts | 163° |
| 2026-05-07 12:35 | 52.01599 | -1.47991 | 13610 ft | 390 kts | 163° |
| 2026-05-07 12:35 | 51.98999 | -1.46686 | 14128 ft | 393 kts | 163° |
| 2026-05-07 12:36 | 51.96379 | -1.45372 | 14628 ft | 396 kts | 163° |
| 2026-05-07 12:36 | 51.93742 | -1.44053 | 15113 ft | 398 kts | 163° |
| 2026-05-07 12:36 | 51.91086 | -1.42727 | 15581 ft | 401 kts | 163° |
| 2026-05-07 12:36 | 51.88410 | -1.41398 | 16032 ft | 403 kts | 163° |
| 2026-05-07 12:37 | 51.85723 | -1.40061 | 16465 ft | 406 kts | 163° |
| 2026-05-07 12:37 | 51.83017 | -1.38712 | 16875 ft | 408 kts | 163° |
| 2026-05-07 12:37 | 51.80300 | -1.37361 | 17279 ft | 410 kts | 163° |
| 2026-05-07 12:37 | 51.77564 | -1.36002 | 17674 ft | 412 kts | 163° |
| 2026-05-07 12:38 | 51.74815 | -1.34638 | 18056 ft | 415 kts | 163° |
| 2026-05-07 12:38 | 51.72054 | -1.33273 | 18429 ft | 417 kts | 163° |
| 2026-05-07 12:38 | 51.69270 | -1.31899 | 18792 ft | 419 kts | 163° |
| 2026-05-07 12:38 | 51.66475 | -1.30522 | 19157 ft | 421 kts | 163° |
| 2026-05-07 12:39 | 51.63667 | -1.29141 | 19525 ft | 423 kts | 163° |
| 2026-05-07 12:39 | 51.60848 | -1.27753 | 19877 ft | 425 kts | 163° |
| 2026-05-07 12:39 | 51.58008 | -1.26355 | 20221 ft | 427 kts | 163° |
| 2026-05-07 12:39 | 51.55164 | -1.24960 | 20559 ft | 429 kts | 163° |
| 2026-05-07 12:40 | 51.52299 | -1.23556 | 20883 ft | 431 kts | 163° |
| 2026-05-07 12:40 | 51.49382 | -1.22413 | 21217 ft | 433 kts | 172° |
| 2026-05-07 12:40 | 51.46378 | -1.22140 | 21558 ft | 434 kts | 182° |
| 2026-05-07 12:40 | 51.43353 | -1.22374 | 21898 ft | 436 kts | 184° |
| 2026-05-07 12:41 | 51.40314 | -1.22665 | 22232 ft | 439 kts | 184° |
| 2026-05-07 12:41 | 51.37259 | -1.22949 | 22569 ft | 441 kts | 184° |
| 2026-05-07 12:41 | 51.34186 | -1.23216 | 22907 ft | 443 kts | 183° |
| 2026-05-07 12:41 | 51.31102 | -1.23470 | 23240 ft | 445 kts | 183° |
| 2026-05-07 12:42 | 51.27999 | -1.23722 | 23571 ft | 448 kts | 183° |
| 2026-05-07 12:42 | 51.24883 | -1.23975 | 23928 ft | 450 kts | 183° |
| 2026-05-07 12:42 | 51.21747 | -1.24232 | 24277 ft | 452 kts | 183° |
| 2026-05-07 12:42 | 51.18623 | -1.24837 | 24614 ft | 454 kts | 192° |
| 2026-05-07 12:43 | 51.15597 | -1.26048 | 24929 ft | 456 kts | 195° |
| 2026-05-07 12:43 | 51.12483 | -1.27398 | 25246 ft | 458 kts | 195° |
| 2026-05-07 12:43 | 51.09401 | -1.28725 | 25565 ft | 460 kts | 195° |
| 2026-05-07 12:43 | 51.06306 | -1.30032 | 25963 ft | 459 kts | 195° |
| 2026-05-07 12:44 | 51.03219 | -1.31327 | 26366 ft | 458 kts | 195° |
| 2026-05-07 12:44 | 51.00140 | -1.32621 | 26771 ft | 458 kts | 195° |
| 2026-05-07 12:44 | 50.97077 | -1.33974 | 27169 ft | 456 kts | 198° |
| 2026-05-07 12:44 | 50.94169 | -1.35976 | 27525 ft | 456 kts | 209° |
| 2026-05-07 12:45 | 50.91487 | -1.38636 | 27898 ft | 454 kts | 213° |
| 2026-05-07 12:45 | 50.88861 | -1.41416 | 28250 ft | 454 kts | 214° |
| 2026-05-07 12:45 | 50.86240 | -1.44188 | 28589 ft | 453 kts | 213° |
| 2026-05-07 12:45 | 50.83613 | -1.46941 | 28968 ft | 452 kts | 213° |
| 2026-05-07 12:46 | 50.80994 | -1.49664 | 29301 ft | 451 kts | 213° |
| 2026-05-07 12:46 | 50.78361 | -1.52390 | 29616 ft | 451 kts | 213° |
| 2026-05-07 12:46 | 50.75782 | -1.55060 | 29956 ft | 450 kts | 213° |
| 2026-05-07 12:46 | 50.73171 | -1.57767 | 30270 ft | 449 kts | 213° |
| 2026-05-07 12:47 | 50.70559 | -1.60465 | 30598 ft | 448 kts | 213° |
| 2026-05-07 12:47 | 50.67954 | -1.63139 | 30935 ft | 447 kts | 213° |
| 2026-05-07 12:47 | 50.65352 | -1.65803 | 31258 ft | 446 kts | 213° |
| 2026-05-07 12:47 | 50.62754 | -1.68466 | 31561 ft | 445 kts | 213° |
| 2026-05-07 12:48 | 50.60167 | -1.71121 | 31867 ft | 444 kts | 213° |
| 2026-05-07 12:48 | 50.57583 | -1.73778 | 32146 ft | 443 kts | 213° |
| 2026-05-07 12:48 | 50.55010 | -1.76423 | 32424 ft | 442 kts | 213° |
| 2026-05-07 12:48 | 50.52439 | -1.79057 | 32680 ft | 441 kts | 213° |
| 2026-05-07 12:49 | 50.49865 | -1.81690 | 32950 ft | 440 kts | 213° |
| 2026-05-07 12:49 | 50.47299 | -1.84305 | 33207 ft | 440 kts | 213° |
| 2026-05-07 12:49 | 50.44731 | -1.86908 | 33437 ft | 439 kts | 213° |
| 2026-05-07 12:49 | 50.42168 | -1.89504 | 33655 ft | 438 kts | 213° |
| 2026-05-07 12:50 | 50.39642 | -1.92064 | 33873 ft | 437 kts | 213° |
| 2026-05-07 12:50 | 50.37061 | -1.94688 | 34063 ft | 437 kts | 213° |
| 2026-05-07 12:50 | 50.31955 | -1.99868 | 34098 ft | 437 kts | 213° |
| 2026-05-07 12:51 | 50.26856 | -2.05010 | 34068 ft | 437 kts | 213° |
| 2026-05-07 12:51 | 50.21735 | -2.10110 | 34062 ft | 437 kts | 213° |
| 2026-05-07 12:52 | 50.16571 | -2.15114 | 34063 ft | 437 kts | 212° |
| 2026-05-07 12:52 | 50.11411 | -2.20122 | 34061 ft | 437 kts | 213° |
| 2026-05-07 12:53 | 50.06262 | -2.25115 | 34062 ft | 436 kts | 213° |
| 2026-05-07 12:53 | 50.01137 | -2.30073 | 34060 ft | 436 kts | 212° |
| 2026-05-07 12:54 | 49.95977 | -2.35055 | 34062 ft | 436 kts | 213° |
| 2026-05-07 12:54 | 49.90823 | -2.40029 | 34050 ft | 436 kts | 213° |
| 2026-05-07 12:55 | 49.85671 | -2.44987 | 34051 ft | 437 kts | 212° |
| 2026-05-07 12:55 | 49.80513 | -2.49941 | 34049 ft | 436 kts | 212° |
| 2026-05-07 12:56 | 49.75348 | -2.54886 | 34049 ft | 436 kts | 212° |
| 2026-05-07 12:56 | 49.70184 | -2.59807 | 34049 ft | 436 kts | 212° |
| 2026-05-07 12:57 | 49.65023 | -2.64723 | 34049 ft | 436 kts | 212° |
| 2026-05-07 12:57 | 49.59856 | -2.69625 | 34049 ft | 436 kts | 212° |
| 2026-05-07 12:58 | 49.54683 | -2.74525 | 34051 ft | 436 kts | 212° |
| 2026-05-07 12:58 | 49.49518 | -2.79406 | 34050 ft | 436 kts | 212° |
| 2026-05-07 12:59 | 49.44343 | -2.84282 | 34051 ft | 436 kts | 212° |
| 2026-05-07 12:59 | 49.39204 | -2.89109 | 34050 ft | 436 kts | 212° |
| 2026-05-07 13:00 | 49.34036 | -2.93963 | 34051 ft | 436 kts | 212° |
| 2026-05-07 13:00 | 49.28857 | -2.98806 | 34049 ft | 436 kts | 212° |
| 2026-05-07 13:01 | 49.23678 | -3.03635 | 34035 ft | 436 kts | 212° |
| 2026-05-07 13:01 | 49.18496 | -3.08461 | 34025 ft | 436 kts | 212° |
| 2026-05-07 13:02 | 49.13314 | -3.13271 | 34017 ft | 436 kts | 212° |
| 2026-05-07 13:02 | 49.08125 | -3.18074 | 34019 ft | 436 kts | 212° |
| 2026-05-07 13:03 | 49.02935 | -3.22874 | 34011 ft | 436 kts | 212° |
| 2026-05-07 13:03 | 48.97773 | -3.27631 | 34007 ft | 436 kts | 211° |
| 2026-05-07 13:04 | 48.92571 | -3.32405 | 34003 ft | 436 kts | 211° |
| 2026-05-07 13:04 | 48.87384 | -3.37159 | 34001 ft | 436 kts | 211° |
| 2026-05-07 13:05 | 48.82186 | -3.41913 | 34001 ft | 436 kts | 211° |
| 2026-05-07 13:05 | 48.76997 | -3.46647 | 33991 ft | 436 kts | 211° |
| 2026-05-07 13:06 | 48.71799 | -3.51380 | 33992 ft | 436 kts | 211° |
| 2026-05-07 13:06 | 48.66603 | -3.56101 | 33992 ft | 436 kts | 211° |
| 2026-05-07 13:07 | 48.61399 | -3.60816 | 33998 ft | 436 kts | 211° |
| 2026-05-07 13:07 | 48.56203 | -3.65514 | 33992 ft | 436 kts | 211° |
| 2026-05-07 13:08 | 48.51028 | -3.70179 | 33990 ft | 435 kts | 211° |
| 2026-05-07 13:08 | 48.45793 | -3.74887 | 33991 ft | 436 kts | 211° |
| 2026-05-07 13:09 | 48.40622 | -3.79530 | 33995 ft | 436 kts | 211° |
| 2026-05-07 13:09 | 48.35412 | -3.84192 | 33999 ft | 435 kts | 211° |
| 2026-05-07 13:10 | 48.30203 | -3.88842 | 34002 ft | 436 kts | 211° |
| 2026-05-07 13:10 | 48.24990 | -3.93485 | 34000 ft | 435 kts | 211° |
| 2026-05-07 13:11 | 48.19779 | -3.98118 | 34000 ft | 436 kts | 211° |
| 2026-05-07 13:11 | 48.14566 | -4.02742 | 34003 ft | 436 kts | 211° |
| 2026-05-07 13:12 | 48.09339 | -4.07362 | 34000 ft | 436 kts | 211° |
| 2026-05-07 13:12 | 48.04121 | -4.11965 | 33991 ft | 436 kts | 211° |
| 2026-05-07 13:13 | 47.98899 | -4.16561 | 33991 ft | 436 kts | 211° |
| 2026-05-07 13:13 | 47.93691 | -4.21138 | 33991 ft | 436 kts | 211° |
| 2026-05-07 13:14 | 47.88466 | -4.25714 | 33990 ft | 436 kts | 210° |
| 2026-05-07 13:14 | 47.83244 | -4.30279 | 33995 ft | 436 kts | 210° |
| 2026-05-07 13:15 | 47.78081 | -4.35016 | 34000 ft | 436 kts | 212° |
| 2026-05-07 13:15 | 47.72945 | -4.39788 | 33993 ft | 436 kts | 212° |
| 2026-05-07 13:16 | 47.67801 | -4.44557 | 33991 ft | 436 kts | 212° |
| 2026-05-07 13:16 | 47.62662 | -4.49314 | 33991 ft | 435 kts | 212° |
| 2026-05-07 13:17 | 47.57554 | -4.54029 | 33991 ft | 435 kts | 212° |
| 2026-05-07 13:17 | 47.52411 | -4.58763 | 33990 ft | 435 kts | 212° |
| 2026-05-07 13:18 | 47.47273 | -4.63488 | 33990 ft | 435 kts | 212° |
| 2026-05-07 13:18 | 47.42134 | -4.68208 | 33989 ft | 435 kts | 212° |
| 2026-05-07 13:19 | 47.36983 | -4.72916 | 33988 ft | 435 kts | 212° |
| 2026-05-07 13:19 | 47.31827 | -4.77616 | 33990 ft | 435 kts | 212° |
| 2026-05-07 13:20 | 47.26677 | -4.82302 | 33991 ft | 435 kts | 211° |
| 2026-05-07 13:20 | 47.21520 | -4.86985 | 33990 ft | 435 kts | 211° |
| 2026-05-07 13:21 | 47.16366 | -4.91653 | 33990 ft | 435 kts | 211° |
| 2026-05-07 13:21 | 47.11202 | -4.96316 | 33990 ft | 435 kts | 211° |
| 2026-05-07 13:22 | 47.06912 | -5.00186 | 33990 ft | 435 kts | 211° |
| 2026-05-07 13:22 | 47.01754 | -5.04829 | 33991 ft | 435 kts | 211° |
| 2026-05-07 13:23 | 46.96588 | -5.09464 | 33993 ft | 435 kts | 211° |
| 2026-05-07 13:23 | 46.91418 | -5.14086 | 33984 ft | 435 kts | 211° |
| 2026-05-07 13:24 | 46.86247 | -5.18698 | 33980 ft | 435 kts | 211° |
| 2026-05-07 13:24 | 46.81074 | -5.23310 | 33975 ft | 435 kts | 211° |
| 2026-05-07 13:25 | 46.75902 | -5.27913 | 33974 ft | 435 kts | 211° |
| 2026-05-07 13:25 | 46.70764 | -5.32472 | 33968 ft | 435 kts | 211° |
| 2026-05-07 13:26 | 46.65585 | -5.37055 | 33967 ft | 436 kts | 211° |
| 2026-05-07 13:26 | 46.60410 | -5.41629 | 33967 ft | 435 kts | 211° |
| 2026-05-07 13:27 | 46.55226 | -5.46199 | 33967 ft | 436 kts | 211° |
| 2026-05-07 13:27 | 46.50039 | -5.50761 | 33958 ft | 436 kts | 211° |
| 2026-05-07 13:28 | 46.44848 | -5.55316 | 33963 ft | 436 kts | 211° |
| 2026-05-07 13:28 | 46.39658 | -5.59859 | 33957 ft | 436 kts | 211° |
| 2026-05-07 13:29 | 46.34463 | -5.64399 | 33960 ft | 436 kts | 211° |
| 2026-05-07 13:29 | 46.29273 | -5.68931 | 33949 ft | 436 kts | 211° |
| 2026-05-07 13:30 | 46.24071 | -5.73462 | 33951 ft | 436 kts | 211° |
| 2026-05-07 13:30 | 46.18870 | -5.77976 | 33950 ft | 437 kts | 211° |
| 2026-05-07 13:31 | 46.13660 | -5.82488 | 33951 ft | 436 kts | 211° |
| 2026-05-07 13:31 | 46.08455 | -5.86984 | 33938 ft | 437 kts | 211° |
| 2026-05-07 13:32 | 46.03279 | -5.91447 | 33937 ft | 436 kts | 211° |
| 2026-05-07 13:32 | 45.98065 | -5.95930 | 33937 ft | 437 kts | 211° |
| 2026-05-07 13:33 | 45.92854 | -6.00401 | 33933 ft | 436 kts | 210° |
| 2026-05-07 13:33 | 45.87635 | -6.04866 | 33937 ft | 436 kts | 210° |
| 2026-05-07 13:34 | 45.79809 | -6.11541 | 33935 ft | 436 kts | 210° |
| 2026-05-07 13:35 | 45.74583 | -6.15989 | 33930 ft | 437 kts | 210° |
| 2026-05-07 13:35 | 45.69360 | -6.20426 | 33930 ft | 437 kts | 210° |
| 2026-05-07 13:36 | 45.64128 | -6.24856 | 33930 ft | 437 kts | 210° |
| 2026-05-07 13:36 | 45.58894 | -6.29288 | 33931 ft | 437 kts | 210° |
| 2026-05-07 13:37 | 45.53657 | -6.33707 | 33923 ft | 438 kts | 210° |
| 2026-05-07 13:37 | 45.48405 | -6.38129 | 33913 ft | 438 kts | 210° |
| 2026-05-07 13:38 | 45.43191 | -6.42517 | 33910 ft | 438 kts | 211° |
| 2026-05-07 13:38 | 45.37940 | -6.46929 | 33910 ft | 439 kts | 210° |
| 2026-05-07 13:39 | 45.32679 | -6.51333 | 33911 ft | 439 kts | 211° |
| 2026-05-07 13:39 | 45.27411 | -6.55729 | 33908 ft | 439 kts | 211° |
| 2026-05-07 13:40 | 45.22134 | -6.60117 | 33910 ft | 440 kts | 211° |
| 2026-05-07 13:40 | 45.16854 | -6.64504 | 33905 ft | 440 kts | 211° |
| 2026-05-07 13:41 | 45.11566 | -6.68885 | 33899 ft | 440 kts | 211° |
| 2026-05-07 13:41 | 45.06277 | -6.73264 | 33900 ft | 441 kts | 211° |
| 2026-05-07 13:42 | 45.00979 | -6.77642 | 33898 ft | 441 kts | 211° |
| 2026-05-07 13:42 | 44.95680 | -6.82010 | 33897 ft | 441 kts | 211° |
| 2026-05-07 13:43 | 44.90369 | -6.86377 | 33899 ft | 442 kts | 211° |
| 2026-05-07 13:43 | 44.85060 | -6.90732 | 33897 ft | 442 kts | 210° |
| 2026-05-07 13:44 | 44.79625 | -6.94790 | 33904 ft | 442 kts | 207° |
| 2026-05-07 13:44 | 44.74127 | -6.98710 | 33898 ft | 443 kts | 207° |
| 2026-05-07 13:45 | 44.68628 | -7.02625 | 33900 ft | 443 kts | 207° |
| 2026-05-07 13:45 | 44.63125 | -7.06537 | 33903 ft | 444 kts | 207° |
| 2026-05-07 13:46 | 44.57651 | -7.10415 | 33901 ft | 444 kts | 207° |
| 2026-05-07 13:46 | 44.52128 | -7.14331 | 33895 ft | 444 kts | 207° |
| 2026-05-07 13:47 | 44.46611 | -7.18235 | 33897 ft | 445 kts | 207° |
| 2026-05-07 13:47 | 44.41071 | -7.22141 | 33891 ft | 446 kts | 207° |
| 2026-05-07 13:48 | 44.35523 | -7.26043 | 33890 ft | 447 kts | 207° |
| 2026-05-07 13:48 | 44.29967 | -7.29943 | 33892 ft | 447 kts | 207° |
| 2026-05-07 13:49 | 44.24406 | -7.33837 | 33892 ft | 448 kts | 207° |
| 2026-05-07 13:49 | 44.18832 | -7.37735 | 33893 ft | 448 kts | 207° |
| 2026-05-07 13:50 | 44.13251 | -7.41630 | 33901 ft | 449 kts | 207° |
| 2026-05-07 13:50 | 44.07662 | -7.45512 | 33903 ft | 450 kts | 207° |
| 2026-05-07 13:51 | 44.02057 | -7.49398 | 33900 ft | 450 kts | 207° |
| 2026-05-07 13:51 | 43.96455 | -7.53287 | 33898 ft | 451 kts | 208° |
| 2026-05-07 13:52 | 43.90832 | -7.57185 | 33900 ft | 452 kts | 208° |
| 2026-05-07 13:52 | 43.85206 | -7.61066 | 33900 ft | 452 kts | 207° |
| 2026-05-07 13:53 | 43.79573 | -7.64947 | 33898 ft | 452 kts | 208° |
| 2026-05-07 13:53 | 43.73942 | -7.68819 | 33900 ft | 452 kts | 207° |
| 2026-05-07 13:54 | 43.68305 | -7.72681 | 33900 ft | 452 kts | 207° |
| 2026-05-07 13:54 | 43.62667 | -7.76542 | 33897 ft | 452 kts | 207° |
| 2026-05-07 13:55 | 43.57067 | -7.80365 | 33899 ft | 452 kts | 207° |
| 2026-05-07 13:55 | 43.51430 | -7.84213 | 33896 ft | 452 kts | 207° |
| 2026-05-07 13:56 | 43.45786 | -7.88046 | 33899 ft | 452 kts | 207° |
| 2026-05-07 13:56 | 43.40152 | -7.91874 | 33905 ft | 452 kts | 207° |
| 2026-05-07 13:57 | 43.34506 | -7.95700 | 33897 ft | 452 kts | 207° |
| 2026-05-07 13:57 | 43.28872 | -7.99510 | 33900 ft | 452 kts | 207° |
| 2026-05-07 13:58 | 43.23223 | -8.03316 | 33905 ft | 453 kts | 208° |
| 2026-05-07 13:58 | 43.17554 | -8.07128 | 33899 ft | 454 kts | 208° |
| 2026-05-07 13:59 | 43.11887 | -8.10934 | 33903 ft | 454 kts | 208° |
| 2026-05-07 13:59 | 43.06212 | -8.14723 | 33890 ft | 454 kts | 208° |
| 2026-05-07 14:00 | 43.00538 | -8.18513 | 33888 ft | 454 kts | 208° |
| 2026-05-07 14:00 | 42.94862 | -8.22294 | 33883 ft | 454 kts | 208° |
| 2026-05-07 14:01 | 42.89182 | -8.26069 | 33880 ft | 454 kts | 208° |
| 2026-05-07 14:01 | 42.83503 | -8.29854 | 33879 ft | 454 kts | 208° |
| 2026-05-07 14:02 | 42.77908 | -8.33564 | 33889 ft | 454 kts | 208° |
| 2026-05-07 14:02 | 42.72221 | -8.37318 | 33882 ft | 454 kts | 208° |
| 2026-05-07 14:03 | 42.66538 | -8.41081 | 33879 ft | 454 kts | 208° |
| 2026-05-07 14:03 | 42.60845 | -8.44830 | 33882 ft | 455 kts | 208° |
| 2026-05-07 14:04 | 42.55184 | -8.48549 | 33880 ft | 455 kts | 208° |
| 2026-05-07 14:04 | 42.49494 | -8.52289 | 33881 ft | 455 kts | 208° |
| 2026-05-07 14:05 | 42.43796 | -8.56024 | 33880 ft | 455 kts | 208° |
| 2026-05-07 14:05 | 42.38099 | -8.59750 | 33877 ft | 454 kts | 208° |
| 2026-05-07 14:06 | 42.32402 | -8.63468 | 33877 ft | 455 kts | 208° |
| 2026-05-07 14:06 | 42.26699 | -8.67180 | 33885 ft | 455 kts | 208° |
| 2026-05-07 14:07 | 42.20997 | -8.70889 | 33879 ft | 455 kts | 208° |
| 2026-05-07 14:07 | 42.15296 | -8.74587 | 33880 ft | 455 kts | 208° |
| 2026-05-07 14:08 | 42.09596 | -8.78277 | 33887 ft | 455 kts | 208° |
| 2026-05-07 14:08 | 42.03895 | -8.81961 | 33878 ft | 454 kts | 208° |
| 2026-05-07 14:09 | 41.98191 | -8.85639 | 33879 ft | 454 kts | 208° |
| 2026-05-07 14:09 | 41.92496 | -8.89298 | 33879 ft | 453 kts | 208° |
| 2026-05-07 14:10 | 41.86777 | -8.92870 | 33877 ft | 455 kts | 204° |
| 2026-05-07 14:10 | 41.80801 | -8.95710 | 33885 ft | 456 kts | 202° |
| 2026-05-07 14:11 | 41.74813 | -8.98485 | 33885 ft | 456 kts | 202° |
| 2026-05-07 14:11 | 41.68820 | -9.01265 | 33890 ft | 455 kts | 202° |
| 2026-05-07 14:12 | 41.62841 | -9.04039 | 33893 ft | 455 kts | 202° |
| 2026-05-07 14:12 | 41.56901 | -9.06781 | 33898 ft | 455 kts | 202° |
| 2026-05-07 14:13 | 41.51887 | -9.09097 | 33901 ft | 455 kts | 202° |
| 2026-05-07 14:13 | 41.44939 | -9.12307 | 33904 ft | 455 kts | 202° |
| 2026-05-07 14:14 | 41.39931 | -9.14607 | 33906 ft | 454 kts | 202° |
| 2026-05-07 14:14 | 41.33998 | -9.17331 | 33907 ft | 454 kts | 202° |
| 2026-05-07 14:15 | 41.28031 | -9.20068 | 33907 ft | 454 kts | 202° |
| 2026-05-07 14:15 | 41.22061 | -9.22795 | 33910 ft | 454 kts | 202° |
| 2026-05-07 14:16 | 41.16092 | -9.25526 | 33913 ft | 453 kts | 202° |
| 2026-05-07 14:16 | 41.10131 | -9.28258 | 33918 ft | 453 kts | 202° |
| 2026-05-07 14:17 | 41.04168 | -9.30968 | 33916 ft | 453 kts | 202° |
| 2026-05-07 14:17 | 40.98196 | -9.33667 | 33916 ft | 453 kts | 202° |
| 2026-05-07 14:18 | 40.92239 | -9.36369 | 33911 ft | 453 kts | 202° |
| 2026-05-07 14:18 | 40.86283 | -9.39072 | 33910 ft | 452 kts | 202° |
| 2026-05-07 14:19 | 40.80332 | -9.41769 | 33913 ft | 452 kts | 202° |
| 2026-05-07 14:19 | 40.74381 | -9.44451 | 33909 ft | 452 kts | 202° |
| 2026-05-07 14:20 | 40.68437 | -9.47121 | 33909 ft | 451 kts | 202° |
| 2026-05-07 14:20 | 40.62500 | -9.49803 | 33914 ft | 451 kts | 202° |
| 2026-05-07 14:21 | 40.56611 | -9.52442 | 33914 ft | 450 kts | 202° |
| 2026-05-07 14:21 | 40.50676 | -9.55094 | 33921 ft | 450 kts | 202° |
| 2026-05-07 14:22 | 40.44752 | -9.57735 | 33920 ft | 450 kts | 202° |
| 2026-05-07 14:22 | 40.38835 | -9.60378 | 33911 ft | 449 kts | 202° |
| 2026-05-07 14:23 | 40.32921 | -9.63005 | 33909 ft | 449 kts | 202° |
| 2026-05-07 14:23 | 40.27013 | -9.65633 | 33912 ft | 448 kts | 203° |
| 2026-05-07 14:24 | 40.21102 | -9.68247 | 33910 ft | 448 kts | 203° |
| 2026-05-07 14:24 | 40.15202 | -9.70866 | 33913 ft | 447 kts | 202° |
| 2026-05-07 14:25 | 40.09301 | -9.73465 | 33911 ft | 447 kts | 203° |
| 2026-05-07 14:25 | 40.03408 | -9.76067 | 33912 ft | 448 kts | 202° |
| 2026-05-07 14:26 | 39.97509 | -9.78668 | 33910 ft | 447 kts | 203° |
| 2026-05-07 14:26 | 39.91610 | -9.81253 | 33909 ft | 447 kts | 203° |
| 2026-05-07 14:27 | 39.85716 | -9.83833 | 33908 ft | 447 kts | 202° |
| 2026-05-07 14:27 | 39.79817 | -9.86402 | 33910 ft | 447 kts | 202° |
| 2026-05-07 14:28 | 39.73925 | -9.88985 | 33918 ft | 447 kts | 203° |
| 2026-05-07 14:28 | 39.68033 | -9.91563 | 33920 ft | 447 kts | 202° |
| 2026-05-07 14:29 | 39.62172 | -9.94104 | 33920 ft | 447 kts | 202° |
| 2026-05-07 14:29 | 39.56278 | -9.96671 | 33922 ft | 447 kts | 202° |
| 2026-05-07 14:30 | 39.50381 | -9.99225 | 33922 ft | 447 kts | 202° |
| 2026-05-07 14:30 | 39.44480 | -10.01776 | 33924 ft | 447 kts | 202° |
| 2026-05-07 14:31 | 39.38593 | -10.04319 | 33922 ft | 446 kts | 202° |
| 2026-05-07 14:31 | 39.32703 | -10.06848 | 33924 ft | 445 kts | 202° |
| 2026-05-07 14:32 | 39.26839 | -10.09374 | 33930 ft | 445 kts | 202° |
| 2026-05-07 14:32 | 39.20947 | -10.11900 | 33930 ft | 446 kts | 202° |
| 2026-05-07 14:33 | 39.15110 | -10.14401 | 33931 ft | 445 kts | 202° |
| 2026-05-07 14:33 | 39.09237 | -10.16911 | 33934 ft | 445 kts | 202° |
| 2026-05-07 14:34 | 39.03361 | -10.19421 | 33932 ft | 445 kts | 202° |
| 2026-05-07 14:34 | 38.97494 | -10.21939 | 33935 ft | 444 kts | 202° |
| 2026-05-07 14:35 | 38.91629 | -10.24438 | 33933 ft | 444 kts | 202° |
| 2026-05-07 14:35 | 38.85759 | -10.26937 | 33927 ft | 444 kts | 202° |
| 2026-05-07 14:36 | 38.79890 | -10.29435 | 33924 ft | 444 kts | 202° |
| 2026-05-07 14:36 | 38.74025 | -10.31909 | 33947 ft | 444 kts | 202° |
| 2026-05-07 14:37 | 38.68160 | -10.34381 | 33934 ft | 444 kts | 202° |
| 2026-05-07 14:37 | 38.59363 | -10.38099 | 33932 ft | 444 kts | 202° |
| 2026-05-07 14:38 | 38.53497 | -10.40572 | 33930 ft | 444 kts | 202° |
| 2026-05-07 14:38 | 38.47637 | -10.43043 | 33933 ft | 444 kts | 202° |
| 2026-05-07 14:39 | 38.41773 | -10.45507 | 33934 ft | 444 kts | 202° |
| 2026-05-07 14:39 | 38.35950 | -10.47960 | 33937 ft | 444 kts | 202° |
| 2026-05-07 14:40 | 38.30082 | -10.50427 | 33935 ft | 444 kts | 202° |
| 2026-05-07 14:40 | 38.24214 | -10.52882 | 33930 ft | 444 kts | 202° |
| 2026-05-07 14:41 | 38.18346 | -10.55328 | 33929 ft | 444 kts | 202° |
| 2026-05-07 14:41 | 38.12473 | -10.57772 | 33930 ft | 444 kts | 202° |
| 2026-05-07 14:42 | 38.06607 | -10.60205 | 33930 ft | 443 kts | 202° |
| 2026-05-07 14:42 | 38.00743 | -10.62635 | 33931 ft | 444 kts | 202° |
| 2026-05-07 14:43 | 37.94878 | -10.65063 | 33928 ft | 443 kts | 202° |
| 2026-05-07 14:43 | 37.89023 | -10.67483 | 33930 ft | 443 kts | 202° |
| 2026-05-07 14:44 | 37.83169 | -10.69898 | 33929 ft | 443 kts | 202° |
| 2026-05-07 14:44 | 37.77315 | -10.72312 | 33928 ft | 442 kts | 202° |
| 2026-05-07 14:45 | 37.71462 | -10.74724 | 33931 ft | 442 kts | 202° |
| 2026-05-07 14:45 | 37.65613 | -10.77125 | 33932 ft | 442 kts | 202° |
| 2026-05-07 14:46 | 37.59765 | -10.79519 | 33931 ft | 442 kts | 202° |
| 2026-05-07 14:46 | 37.53959 | -10.81894 | 33930 ft | 441 kts | 202° |
| 2026-05-07 14:47 | 37.48080 | -10.84301 | 33930 ft | 441 kts | 202° |
| 2026-05-07 14:47 | 37.42279 | -10.86666 | 33930 ft | 441 kts | 202° |
| 2026-05-07 14:48 | 37.36442 | -10.89042 | 33930 ft | 441 kts | 202° |
| 2026-05-07 14:48 | 37.30604 | -10.91419 | 33929 ft | 441 kts | 202° |
| 2026-05-07 14:49 | 37.24774 | -10.93786 | 33931 ft | 441 kts | 201° |
| 2026-05-07 14:49 | 37.18941 | -10.96148 | 33930 ft | 440 kts | 201° |
| 2026-05-07 14:50 | 37.13117 | -10.98506 | 33931 ft | 440 kts | 201° |
| 2026-05-07 14:50 | 37.07287 | -11.00864 | 33928 ft | 440 kts | 201° |
| 2026-05-07 14:51 | 37.01462 | -11.03212 | 33933 ft | 440 kts | 201° |
| 2026-05-07 14:51 | 36.95634 | -11.05559 | 33938 ft | 440 kts | 201° |
| 2026-05-07 14:52 | 36.89814 | -11.07902 | 33936 ft | 439 kts | 201° |
| 2026-05-07 14:52 | 36.83991 | -11.10239 | 33936 ft | 439 kts | 201° |
| 2026-05-07 14:53 | 36.78170 | -11.12569 | 33944 ft | 439 kts | 201° |
| 2026-05-07 14:53 | 36.72357 | -11.14896 | 33939 ft | 439 kts | 201° |
| 2026-05-07 14:54 | 36.66535 | -11.17220 | 33941 ft | 439 kts | 201° |
| 2026-05-07 14:54 | 36.60720 | -11.19540 | 33952 ft | 439 kts | 201° |
| 2026-05-07 14:55 | 36.54912 | -11.21854 | 33950 ft | 439 kts | 201° |
| 2026-05-07 14:55 | 36.49097 | -11.24167 | 33945 ft | 438 kts | 201° |
| 2026-05-07 14:56 | 36.43331 | -11.26453 | 33947 ft | 438 kts | 201° |
| 2026-05-07 14:56 | 36.37529 | -11.28756 | 33951 ft | 438 kts | 201° |
| 2026-05-07 14:57 | 36.31723 | -11.31053 | 33956 ft | 437 kts | 201° |
| 2026-05-07 14:57 | 36.25925 | -11.33342 | 33952 ft | 437 kts | 201° |
| 2026-05-07 14:58 | 36.20125 | -11.35634 | 33945 ft | 437 kts | 201° |
| 2026-05-07 14:58 | 36.14326 | -11.37917 | 33949 ft | 437 kts | 201° |
| 2026-05-07 14:59 | 36.08525 | -11.40198 | 33949 ft | 437 kts | 201° |
| 2026-05-07 14:59 | 36.02733 | -11.42471 | 33946 ft | 437 kts | 201° |
| 2026-05-07 15:00 | 35.96958 | -11.44794 | 33943 ft | 435 kts | 205° |
| 2026-05-07 15:00 | 35.91527 | -11.48023 | 33948 ft | 433 kts | 210° |
| 2026-05-07 15:01 | 35.86163 | -11.51406 | 33953 ft | 433 kts | 210° |
| 2026-05-07 15:01 | 35.80790 | -11.54759 | 33955 ft | 433 kts | 210° |
| 2026-05-07 15:02 | 35.75458 | -11.58087 | 33953 ft | 432 kts | 210° |
| 2026-05-07 15:02 | 35.70090 | -11.61434 | 33949 ft | 433 kts | 210° |
| 2026-05-07 15:03 | 35.64720 | -11.64775 | 33953 ft | 433 kts | 210° |
| 2026-05-07 15:03 | 35.59343 | -11.68113 | 33949 ft | 433 kts | 210° |
| 2026-05-07 15:04 | 35.53963 | -11.71435 | 33959 ft | 433 kts | 210° |
| 2026-05-07 15:04 | 35.48589 | -11.74756 | 33959 ft | 433 kts | 210° |
| 2026-05-07 15:05 | 35.43207 | -11.78077 | 33956 ft | 433 kts | 210° |
| 2026-05-07 15:05 | 35.38737 | -11.80835 | 33958 ft | 433 kts | 210° |
| 2026-05-07 15:06 | 35.33347 | -11.84155 | 33954 ft | 434 kts | 210° |
| 2026-05-07 15:06 | 35.27956 | -11.87466 | 33960 ft | 433 kts | 210° |
| 2026-05-07 15:07 | 35.22563 | -11.90779 | 33966 ft | 434 kts | 210° |
| 2026-05-07 15:07 | 35.17177 | -11.94078 | 33954 ft | 431 kts | 209° |
| 2026-05-07 15:08 | 35.11856 | -11.97337 | 33953 ft | 426 kts | 209° |
| 2026-05-07 15:08 | 35.06547 | -12.00579 | 33950 ft | 427 kts | 209° |
| 2026-05-07 15:09 | 35.01253 | -12.03812 | 33951 ft | 425 kts | 208° |
| 2026-05-07 15:09 | 34.95955 | -12.07032 | 33950 ft | 426 kts | 208° |
| 2026-05-07 15:10 | 34.90658 | -12.10256 | 33953 ft | 426 kts | 208° |
| 2026-05-07 15:10 | 34.85359 | -12.13478 | 33953 ft | 426 kts | 208° |
| 2026-05-07 15:11 | 34.80049 | -12.16700 | 33958 ft | 426 kts | 208° |
| 2026-05-07 15:11 | 34.74734 | -12.19917 | 33950 ft | 426 kts | 208° |
| 2026-05-07 15:12 | 34.69457 | -12.23108 | 33954 ft | 427 kts | 208° |
| 2026-05-07 15:12 | 34.64102 | -12.26342 | 33958 ft | 427 kts | 208° |
| 2026-05-07 15:13 | 34.58810 | -12.29530 | 33964 ft | 427 kts | 208° |
| 2026-05-07 15:13 | 34.53485 | -12.32736 | 33966 ft | 427 kts | 208° |
| 2026-05-07 15:14 | 34.48157 | -12.35941 | 33960 ft | 428 kts | 208° |
| 2026-05-07 15:14 | 34.42824 | -12.39143 | 33961 ft | 428 kts | 208° |
| 2026-05-07 15:15 | 34.37483 | -12.42344 | 33960 ft | 428 kts | 208° |
| 2026-05-07 15:15 | 34.32143 | -12.45541 | 33958 ft | 428 kts | 208° |
| 2026-05-07 15:16 | 34.26801 | -12.48734 | 33962 ft | 428 kts | 208° |
| 2026-05-07 15:16 | 34.21459 | -12.51924 | 33962 ft | 428 kts | 208° |
| 2026-05-07 15:17 | 34.16113 | -12.55108 | 33963 ft | 429 kts | 208° |
| 2026-05-07 15:17 | 34.10769 | -12.58291 | 33956 ft | 428 kts | 208° |
| 2026-05-07 15:18 | 34.05430 | -12.61465 | 33961 ft | 428 kts | 208° |
| 2026-05-07 15:18 | 34.00096 | -12.64634 | 33965 ft | 428 kts | 208° |
| 2026-05-07 15:19 | 33.94741 | -12.67809 | 33966 ft | 429 kts | 208° |
| 2026-05-07 15:19 | 33.89424 | -12.70956 | 33967 ft | 429 kts | 208° |
| 2026-05-07 15:20 | 33.84070 | -12.74119 | 33967 ft | 429 kts | 208° |
| 2026-05-07 15:20 | 33.78714 | -12.77282 | 33966 ft | 429 kts | 208° |
| 2026-05-07 15:21 | 33.73360 | -12.80437 | 33972 ft | 429 kts | 208° |
| 2026-05-07 15:21 | 33.68004 | -12.83590 | 33971 ft | 429 kts | 208° |
| 2026-05-07 15:22 | 33.62644 | -12.86740 | 33967 ft | 429 kts | 208° |
| 2026-05-07 15:22 | 33.57291 | -12.89883 | 33973 ft | 429 kts | 208° |
| 2026-05-07 15:23 | 33.51965 | -12.93005 | 33971 ft | 429 kts | 208° |
| 2026-05-07 15:23 | 33.46610 | -12.96137 | 33970 ft | 429 kts | 208° |
| 2026-05-07 15:24 | 33.41245 | -12.99271 | 33966 ft | 429 kts | 208° |
| 2026-05-07 15:24 | 33.35885 | -13.02403 | 33971 ft | 429 kts | 208° |
| 2026-05-07 15:25 | 33.30525 | -13.05528 | 33977 ft | 429 kts | 208° |
| 2026-05-07 15:25 | 33.25158 | -13.08652 | 33979 ft | 429 kts | 208° |
| 2026-05-07 15:26 | 33.19796 | -13.11769 | 33980 ft | 429 kts | 208° |
| 2026-05-07 15:26 | 33.14431 | -13.14881 | 33980 ft | 429 kts | 208° |
| 2026-05-07 15:27 | 33.09066 | -13.17993 | 33983 ft | 429 kts | 208° |
| 2026-05-07 15:27 | 33.03701 | -13.21100 | 33988 ft | 429 kts | 208° |
| 2026-05-07 15:28 | 32.98336 | -13.24204 | 33991 ft | 429 kts | 208° |
| 2026-05-07 15:28 | 32.92967 | -13.27304 | 33990 ft | 429 kts | 208° |
| 2026-05-07 15:29 | 32.87594 | -13.30401 | 33990 ft | 429 kts | 208° |
| 2026-05-07 15:29 | 32.82256 | -13.33475 | 33991 ft | 429 kts | 208° |
| 2026-05-07 15:30 | 32.76887 | -13.36562 | 33990 ft | 429 kts | 208° |
| 2026-05-07 15:30 | 32.71502 | -13.39655 | 33990 ft | 430 kts | 208° |
| 2026-05-07 15:31 | 32.66120 | -13.42738 | 33991 ft | 430 kts | 208° |
| 2026-05-07 15:31 | 32.60739 | -13.45818 | 33991 ft | 430 kts | 208° |
| 2026-05-07 15:32 | 32.55356 | -13.48903 | 33990 ft | 430 kts | 208° |
| 2026-05-07 15:32 | 32.49970 | -13.51982 | 33990 ft | 430 kts | 208° |
| 2026-05-07 15:33 | 32.44581 | -13.55055 | 33989 ft | 430 kts | 208° |
| 2026-05-07 15:33 | 32.39194 | -13.58123 | 33989 ft | 430 kts | 208° |
| 2026-05-07 15:34 | 32.33799 | -13.61193 | 33997 ft | 430 kts | 208° |
| 2026-05-07 15:34 | 32.28406 | -13.64259 | 34001 ft | 430 kts | 208° |
| 2026-05-07 15:35 | 32.23041 | -13.67302 | 33999 ft | 430 kts | 208° |
| 2026-05-07 15:35 | 32.17649 | -13.70361 | 34000 ft | 430 kts | 208° |
| 2026-05-07 15:36 | 32.12256 | -13.73413 | 34002 ft | 430 kts | 208° |
| 2026-05-07 15:36 | 32.06852 | -13.76464 | 33997 ft | 431 kts | 208° |
| 2026-05-07 15:37 | 32.01449 | -13.79514 | 33993 ft | 430 kts | 208° |
| 2026-05-07 15:37 | 31.96048 | -13.82561 | 33991 ft | 430 kts | 208° |
| 2026-05-07 15:38 | 31.90646 | -13.85603 | 33992 ft | 430 kts | 208° |
| 2026-05-07 15:38 | 31.85243 | -13.88642 | 33993 ft | 430 kts | 208° |
| 2026-05-07 15:39 | 31.79842 | -13.91674 | 34001 ft | 430 kts | 208° |
| 2026-05-07 15:39 | 31.74473 | -13.94684 | 34000 ft | 430 kts | 208° |
| 2026-05-07 15:40 | 31.69068 | -13.97712 | 33991 ft | 431 kts | 208° |
| 2026-05-07 15:40 | 31.63655 | -14.00739 | 33991 ft | 431 kts | 208° |
| 2026-05-07 15:41 | 31.58242 | -14.03766 | 33990 ft | 431 kts | 208° |
| 2026-05-07 15:41 | 31.52832 | -14.06784 | 33988 ft | 431 kts | 208° |
| 2026-05-07 15:42 | 31.47419 | -14.09796 | 33991 ft | 431 kts | 208° |
| 2026-05-07 15:42 | 31.42007 | -14.12809 | 33990 ft | 431 kts | 208° |
| 2026-05-07 15:43 | 31.36591 | -14.15820 | 33999 ft | 431 kts | 208° |
| 2026-05-07 15:43 | 31.31169 | -14.18821 | 33999 ft | 431 kts | 208° |
| 2026-05-07 15:44 | 31.25746 | -14.21819 | 34001 ft | 431 kts | 208° |
| 2026-05-07 15:44 | 31.20326 | -14.24830 | 33999 ft | 432 kts | 208° |
| 2026-05-07 15:45 | 31.14895 | -14.27833 | 34000 ft | 432 kts | 208° |
| 2026-05-07 15:45 | 31.09459 | -14.30832 | 34000 ft | 432 kts | 208° |
| 2026-05-07 15:46 | 31.01309 | -14.35334 | 34002 ft | 433 kts | 208° |
| 2026-05-07 15:47 | 30.95867 | -14.38332 | 34002 ft | 433 kts | 208° |
| 2026-05-07 15:47 | 30.90416 | -14.41327 | 34000 ft | 433 kts | 208° |
| 2026-05-07 15:48 | 30.85006 | -14.44297 | 34002 ft | 433 kts | 208° |
| 2026-05-07 15:48 | 30.79549 | -14.47290 | 33999 ft | 433 kts | 208° |
| 2026-05-07 15:49 | 30.74092 | -14.50279 | 34001 ft | 434 kts | 208° |
| 2026-05-07 15:49 | 30.68627 | -14.53270 | 34001 ft | 434 kts | 208° |
| 2026-05-07 15:50 | 30.63162 | -14.56257 | 34000 ft | 434 kts | 208° |
| 2026-05-07 15:50 | 30.57691 | -14.59244 | 34001 ft | 434 kts | 208° |
| 2026-05-07 15:51 | 30.52222 | -14.62226 | 34000 ft | 435 kts | 208° |
| 2026-05-07 15:51 | 30.46749 | -14.65202 | 33999 ft | 434 kts | 208° |
| 2026-05-07 15:52 | 30.41271 | -14.68178 | 34001 ft | 435 kts | 208° |
| 2026-05-07 15:52 | 30.35798 | -14.71146 | 34001 ft | 435 kts | 208° |
| 2026-05-07 15:53 | 30.30318 | -14.74114 | 34006 ft | 435 kts | 208° |
| 2026-05-07 15:53 | 30.24836 | -14.77078 | 34010 ft | 435 kts | 208° |
| 2026-05-07 15:54 | 30.19387 | -14.80018 | 34010 ft | 435 kts | 208° |
| 2026-05-07 15:54 | 30.13898 | -14.82975 | 34011 ft | 435 kts | 208° |
| 2026-05-07 15:55 | 30.08415 | -14.85925 | 34009 ft | 435 kts | 208° |
| 2026-05-07 15:55 | 30.02926 | -14.88877 | 34012 ft | 435 kts | 208° |
| 2026-05-07 15:56 | 29.97430 | -14.91828 | 34011 ft | 436 kts | 208° |
| 2026-05-07 15:56 | 29.91910 | -14.94784 | 34010 ft | 438 kts | 208° |
| 2026-05-07 15:57 | 29.86468 | -14.97692 | 34011 ft | 438 kts | 208° |
| 2026-05-07 15:57 | 29.80937 | -15.00643 | 34011 ft | 438 kts | 208° |
| 2026-05-07 15:58 | 29.75109 | -15.02755 | 34011 ft | 445 kts | 193° |
| 2026-05-07 15:58 | 29.68993 | -15.03845 | 34011 ft | 445 kts | 192° |
| 2026-05-07 15:59 | 29.63907 | -15.04773 | 34011 ft | 445 kts | 193° |
| 2026-05-07 15:59 | 29.57792 | -15.05926 | 34011 ft | 445 kts | 193° |
| 2026-05-07 16:00 | 29.51677 | -15.07077 | 33992 ft | 446 kts | 193° |
| 2026-05-07 16:00 | 29.45579 | -15.08221 | 33801 ft | 439 kts | 193° |
| 2026-05-07 16:00 | 29.42554 | -15.08790 | 32983 ft | 442 kts | 193° |
| 2026-05-07 16:01 | 29.39511 | -15.09359 | 32309 ft | 444 kts | 193° |
| 2026-05-07 16:01 | 29.36459 | -15.09932 | 31667 ft | 446 kts | 192° |
| 2026-05-07 16:01 | 29.33387 | -15.10506 | 31043 ft | 448 kts | 192° |
| 2026-05-07 16:01 | 29.30312 | -15.11082 | 30422 ft | 449 kts | 192° |
| 2026-05-07 16:02 | 29.27221 | -15.11662 | 29796 ft | 450 kts | 192° |
| 2026-05-07 16:02 | 29.24125 | -15.12239 | 29171 ft | 452 kts | 192° |
| 2026-05-07 16:02 | 29.21012 | -15.12818 | 28547 ft | 454 kts | 192° |
| 2026-05-07 16:02 | 29.17894 | -15.13401 | 27930 ft | 455 kts | 192° |
| 2026-05-07 16:03 | 29.14758 | -15.13986 | 27298 ft | 457 kts | 192° |
| 2026-05-07 16:03 | 29.11612 | -15.14571 | 26670 ft | 459 kts | 192° |
| 2026-05-07 16:03 | 29.08458 | -15.15154 | 26036 ft | 458 kts | 192° |
| 2026-05-07 16:03 | 29.05331 | -15.15731 | 25416 ft | 454 kts | 192° |
| 2026-05-07 16:04 | 29.02215 | -15.16306 | 24791 ft | 450 kts | 192° |
| 2026-05-07 16:04 | 28.99141 | -15.16880 | 24161 ft | 446 kts | 192° |
| 2026-05-07 16:04 | 28.96090 | -15.17447 | 23525 ft | 442 kts | 192° |
| 2026-05-07 16:04 | 28.93070 | -15.18008 | 22906 ft | 438 kts | 192° |
| 2026-05-07 16:05 | 28.90073 | -15.18565 | 22283 ft | 434 kts | 192° |
| 2026-05-07 16:05 | 28.87104 | -15.19113 | 21654 ft | 430 kts | 192° |
| 2026-05-07 16:05 | 28.84163 | -15.19657 | 21029 ft | 426 kts | 192° |
| 2026-05-07 16:05 | 28.81247 | -15.20195 | 20402 ft | 423 kts | 191° |
| 2026-05-07 16:06 | 28.78359 | -15.20730 | 19778 ft | 419 kts | 192° |
| 2026-05-07 16:06 | 28.75495 | -15.21260 | 19152 ft | 415 kts | 191° |
| 2026-05-07 16:06 | 28.72660 | -15.21784 | 18524 ft | 411 kts | 191° |
| 2026-05-07 16:06 | 28.69851 | -15.22304 | 17898 ft | 407 kts | 191° |
| 2026-05-07 16:07 | 28.67075 | -15.22818 | 17271 ft | 403 kts | 191° |
| 2026-05-07 16:07 | 28.64312 | -15.23329 | 16646 ft | 400 kts | 191° |
| 2026-05-07 16:07 | 28.61611 | -15.24003 | 16018 ft | 396 kts | 198° |
| 2026-05-07 16:07 | 28.58988 | -15.24907 | 15388 ft | 392 kts | 199° |
| 2026-05-07 16:08 | 28.56393 | -15.25833 | 14762 ft | 389 kts | 199° |
| 2026-05-07 16:08 | 28.53819 | -15.26752 | 14141 ft | 386 kts | 199° |
| 2026-05-07 16:08 | 28.51268 | -15.27654 | 13522 ft | 383 kts | 199° |
| 2026-05-07 16:08 | 28.48729 | -15.28548 | 12892 ft | 380 kts | 199° |
| 2026-05-07 16:09 | 28.46215 | -15.29433 | 12265 ft | 377 kts | 199° |
| 2026-05-07 16:09 | 28.43719 | -15.30311 | 11641 ft | 374 kts | 198° |
| 2026-05-07 16:09 | 28.41238 | -15.31183 | 11010 ft | 371 kts | 198° |
| 2026-05-07 16:09 | 28.38788 | -15.32043 | 10388 ft | 368 kts | 198° |
| 2026-05-07 16:10 | 28.36385 | -15.32887 | 9769 ft | 365 kts | 198° |
| 2026-05-07 16:10 | 28.33963 | -15.33734 | 9145 ft | 361 kts | 198° |
| 2026-05-07 16:10 | 28.31529 | -15.34588 | 8507 ft | 359 kts | 198° |
| 2026-05-07 16:10 | 28.29139 | -15.35423 | 7865 ft | 359 kts | 198° |
| 2026-05-07 16:11 | 28.26762 | -15.36257 | 7229 ft | 358 kts | 198° |
| 2026-05-07 16:11 | 28.24411 | -15.37082 | 6957 ft | 346 kts | 198° |
| 2026-05-07 16:11 | 28.22193 | -15.37856 | 6942 ft | 329 kts | 198° |
| 2026-05-07 16:11 | 28.20032 | -15.38612 | 6952 ft | 312 kts | 199° |
| 2026-05-07 16:12 | 28.18015 | -15.39316 | 6961 ft | 295 kts | 199° |
| 2026-05-07 16:12 | 28.16108 | -15.39981 | 6973 ft | 283 kts | 199° |
| 2026-05-07 16:12 | 28.14235 | -15.40636 | 6985 ft | 281 kts | 199° |
| 2026-05-07 16:12 | 28.12363 | -15.41292 | 6994 ft | 281 kts | 199° |
| 2026-05-07 16:13 | 28.10486 | -15.41944 | 6998 ft | 282 kts | 197° |
| 2026-05-07 16:13 | 28.08575 | -15.42260 | 6987 ft | 284 kts | 178° |
| 2026-05-07 16:13 | 28.06677 | -15.41671 | 6992 ft | 287 kts | 152° |
| 2026-05-07 16:13 | 28.05114 | -15.40269 | 7001 ft | 287 kts | 135° |
| 2026-05-07 16:14 | 28.03726 | -15.38643 | 7008 ft | 288 kts | 134° |
| 2026-05-07 16:14 | 28.02338 | -15.37014 | 6990 ft | 288 kts | 134° |
| 2026-05-07 16:14 | 28.00952 | -15.35407 | 6873 ft | 287 kts | 134° |
| 2026-05-07 16:14 | 27.99553 | -15.33800 | 6689 ft | 286 kts | 135° |
| 2026-05-07 16:15 | 27.98152 | -15.32203 | 6484 ft | 285 kts | 135° |
| 2026-05-07 16:15 | 27.96754 | -15.30619 | 6284 ft | 284 kts | 135° |
| 2026-05-07 16:15 | 27.95355 | -15.29040 | 6089 ft | 283 kts | 135° |
| 2026-05-07 16:15 | 27.93961 | -15.27473 | 5970 ft | 282 kts | 135° |
| 2026-05-07 16:16 | 27.92565 | -15.25911 | 5953 ft | 283 kts | 135° |
| 2026-05-07 16:16 | 27.91168 | -15.24345 | 5967 ft | 283 kts | 135° |
| 2026-05-07 16:16 | 27.89751 | -15.22810 | 5976 ft | 282 kts | 142° |
| 2026-05-07 16:16 | 27.88014 | -15.21826 | 5953 ft | 281 kts | 167° |
| 2026-05-07 16:17 | 27.86084 | -15.21709 | 5766 ft | 278 kts | 191° |
| 2026-05-07 16:17 | 27.84287 | -15.22451 | 5558 ft | 275 kts | 213° |
| 2026-05-07 16:17 | 27.82823 | -15.23779 | 5349 ft | 266 kts | 224° |
| 2026-05-07 16:17 | 27.81487 | -15.25182 | 5129 ft | 258 kts | 224° |
| 2026-05-07 16:18 | 27.80185 | -15.26535 | 4884 ft | 251 kts | 224° |
| 2026-05-07 16:18 | 27.78898 | -15.27850 | 4633 ft | 249 kts | 223° |
| 2026-05-07 16:18 | 27.77614 | -15.29149 | 4306 ft | 247 kts | 223° |
| 2026-05-07 16:18 | 27.76332 | -15.30441 | 3986 ft | 247 kts | 223° |
| 2026-05-07 16:19 | 27.75039 | -15.31730 | 3732 ft | 248 kts | 223° |
| 2026-05-07 16:19 | 27.73746 | -15.33014 | 3517 ft | 248 kts | 222° |
| 2026-05-07 16:19 | 27.72454 | -15.34298 | 3458 ft | 248 kts | 223° |
| 2026-05-07 16:19 | 27.71391 | -15.35788 | 3453 ft | 238 kts | 249° |
| 2026-05-07 16:20 | 27.71222 | -15.37529 | 3450 ft | 220 kts | 284° |
| 2026-05-07 16:20 | 27.71730 | -15.39148 | 3471 ft | 219 kts | 295° |
| 2026-05-07 16:20 | 27.72348 | -15.40723 | 3420 ft | 219 kts | 295° |
| 2026-05-07 16:20 | 27.72974 | -15.42281 | 3254 ft | 216 kts | 301° |
| 2026-05-07 16:21 | 27.73954 | -15.43447 | 3093 ft | 198 kts | 329° |
| 2026-05-07 16:21 | 27.75186 | -15.44077 | 2956 ft | 194 kts | 338° |
| 2026-05-07 16:21 | 27.76418 | -15.44685 | 2790 ft | 190 kts | 336° |
| 2026-05-07 16:21 | 27.77623 | -15.45217 | 2587 ft | 182 kts | 348° |
| 2026-05-07 16:22 | 27.78857 | -15.45069 | 2479 ft | 180 kts | 17° |
| 2026-05-07 16:22 | 27.80010 | -15.44504 | 2469 ft | 181 kts | 24° |
| 2026-05-07 16:22 | 27.81152 | -15.43991 | 2363 ft | 177 kts | 22° |
| 2026-05-07 16:22 | 27.82271 | -15.43493 | 2133 ft | 168 kts | 21° |
| 2026-05-07 16:23 | 27.83337 | -15.43021 | 1902 ft | 161 kts | 21° |
| 2026-05-07 16:23 | 27.84375 | -15.42563 | 1690 ft | 160 kts | 21° |
| 2026-05-07 16:23 | 27.85407 | -15.42106 | 1478 ft | 159 kts | 22° |
| 2026-05-07 16:23 | 27.86432 | -15.41652 | 1297 ft | 158 kts | 22° |
| 2026-05-07 16:24 | 27.87452 | -15.41200 | 1101 ft | 155 kts | 22° |
| 2026-05-07 16:24 | 27.88416 | -15.40774 | 872 ft | 143 kts | 22° |
| 2026-05-07 16:24 | 27.89331 | -15.40368 | 676 ft | 141 kts | 21° |
| 2026-05-07 16:24 | 27.90247 | -15.39963 | 482 ft | 142 kts | 22° |
| 2026-05-07 16:25 | 27.91164 | -15.39553 | 309 ft | 142 kts | 22° |
| 2026-05-07 16:25 | 27.92083 | -15.39145 | 101 ft | 143 kts | 21° |
| 2026-05-07 16:25 | 27.92930 | -15.38771 | 67 ft | 107 kts | 21° |
| 2026-05-07 16:25 | 27.93438 | -15.38547 | 65 ft | 50 kts | 21° |
| 2026-05-07 16:26 | 27.93667 | -15.38448 | 66 ft | 31 kts | 18° |
| 2026-05-07 16:26 | 27.93872 | -15.38428 | 61 ft | 21 kts | 352° |
| 2026-05-07 16:26 | 27.93977 | -15.38447 | 76 ft | 13 kts | 351° |
| 2026-05-07 16:26 | 27.94034 | -15.38477 | 78 ft | 15 kts | 310° |
| 2026-05-07 16:27 | 27.94076 | -15.38599 | 83 ft | 11 kts | 260° |
| 2026-05-07 16:27 | 27.94005 | -15.38657 | 91 ft | 15 kts | 201° |
| 2026-05-07 16:27 | 27.93902 | -15.38701 | 90 ft | 17 kts | 201° |
| 2026-05-07 16:27 | 27.93787 | -15.38752 | 90 ft | 19 kts | 201° |
| 2026-05-07 16:28 | 27.93661 | -15.38808 | 91 ft | 20 kts | 201° |
| 2026-05-07 16:28 | 27.93588 | -15.38840 | 90 ft | 4 kts | 211° |
| 2026-05-07 16:28 | 27.93590 | -15.38881 | 91 ft | 7 kts | 291° |
| 2026-05-07 16:28 | 27.93604 | -15.38919 | 91 ft | 2 kts | 292° |
| 2026-05-07 16:29 | 27.93606 | -15.38923 | 93 ft | 0 kts | 292° |